Time;durP1;ratioP1;P1;durP2;ratioP2;P2;SDS_P1;SDS_P2;PMS_P1;PMS_P2;Temp;Humidity;BMP_temperature;BMP_pressure;BME280_temperature;BME280_humidity;BME280_pressure;Samples;Min_cycle;Max_cycle;Signal;HPM_P1;HPM_P2
2021/12/17 00:01:02;;;;;;;;;;;18.80;37.20;;;;;;487287;243;1155;-77
2021/12/17 00:03:18;;;;;;;;;;;18.80;37.30;;;;;;487373;243;1091;-77
2021/12/17 00:05:18;;;;;;;;;;;18.80;37.20;;;;;;487343;244;1421;-78
2021/12/17 00:07:18;;;;;;;;;;;18.80;37.10;;;;;;487272;242;1371;-78
2021/12/17 00:09:20;;;;;;;;;;;18.90;37.10;;;;;;487632;242;1232;-77
2021/12/17 00:11:21;;;;;;;;;;;18.90;37.10;;;;;;487346;243;1109;-77
2021/12/17 00:13:22;;;;;;;;;;;18.90;37.20;;;;;;487373;244;1007;-77
2021/12/17 00:15:23;;;;;;;;;;;18.90;37.10;;;;;;487333;243;2210;-77
2021/12/17 00:17:28;;;;;;;;;;;18.90;37.20;;;;;;487343;243;1145;-78
2021/12/17 00:19:40;;;;;;;;;;;18.80;37.20;;;;;;487218;244;1423;-77
2021/12/17 00:43:57;;;;;;;;;;;18.80;37.30;;;;;;487362;242;1117;-77
2021/12/17 00:49:32;;;;;;;;;;;18.90;37.30;;;;;;487435;242;1044;-77
2021/12/17 00:51:55;;;;;;;;;;;18.80;37.30;;;;;;487094;245;1135;-77
2021/12/17 00:53:50;;;;;;;;;;;18.80;37.40;;;;;;486864;244;1500;-77
2021/12/17 00:55:51;;;;;;;;;;;18.90;37.30;;;;;;487318;243;2199;-77
2021/12/17 00:57:53;;;;;;;;;;;18.90;37.30;;;;;;487439;243;1083;-78
2021/12/17 00:59:54;;;;;;;;;;;19.00;37.30;;;;;;487422;243;1173;-78
2021/12/17 01:01:55;;;;;;;;;;;18.90;37.30;;;;;;487432;243;1076;-77
2021/12/17 01:03:57;;;;;;;;;;;18.90;37.50;;;;;;487420;243;1077;-78
2021/12/17 01:05:58;;;;;;;;;;;18.80;37.40;;;;;;487426;243;1053;-78
2021/12/17 01:07:59;;;;;;;;;;;18.90;37.50;;;;;;487384;243;1093;-78
2021/12/17 01:10:02;;;;;;;;;;;18.80;37.50;;;;;;487328;244;1043;-77
2021/12/17 01:12:02;;;;;;;;;;;18.80;37.50;;;;;;487263;244;1396;-78
2021/12/17 01:14:03;;;;;;;;;;;18.90;37.60;;;;;;487405;242;935;-78
2021/12/17 01:16:04;;;;;;;;;;;18.90;37.50;;;;;;487340;243;2179;-77
2021/12/17 01:18:10;;;;;;;;;;;18.90;37.50;;;;;;487490;243;1109;-77
2021/12/17 01:20:23;;;;;;;;;;;18.80;37.40;;;;;;487211;244;1441;-78
2021/12/17 01:22:43;;;;;;;;;;;18.90;37.50;;;;;;486743;244;1398;-77
2021/12/17 01:24:44;;;;;;;;;;;18.90;37.40;;;;;;486301;245;1437;-77
2021/12/17 01:35:57;;;;;;;;;;;18.90;37.40;;;;;;487395;242;2131;-77
2021/12/17 01:40:54;;;;;;;;;;;18.90;37.50;;;;;;487330;244;1004;-77
2021/12/17 01:42:38;;;;;;;;;;;18.80;37.50;;;;;;486193;244;1497;-77
2021/12/17 01:44:39;;;;;;;;;;;18.90;37.60;;;;;;487424;243;1006;-77
2021/12/17 01:46:40;;;;;;;;;;;18.90;37.50;;;;;;487353;240;1513;-78
2021/12/17 01:48:54;;;;;;;;;;;18.90;37.50;;;;;;487389;243;969;-77
2021/12/17 01:55:49;;;;;;;;;;;18.80;37.60;;;;;;487179;242;1312;-77
2021/12/17 02:00:18;;;;;;;;;;;18.90;37.60;;;;;;464146;255;1188;-77
2021/12/17 02:02:19;;;;;;;;;;;18.80;37.60;;;;;;476407;243;1225;-78
2021/12/17 02:04:21;;;;;;;;;;;18.80;37.60;;;;;;487339;243;1270;-78
2021/12/17 02:06:23;;;;;;;;;;;18.90;37.60;;;;;;487316;244;1161;-78
2021/12/17 02:08:23;;;;;;;;;;;18.90;37.50;;;;;;487226;244;1488;-77
2021/12/17 02:19:26;;;;;;;;;;;18.80;37.60;;;;;;487416;243;962;-77
2021/12/17 02:20:11;;;;;;;;;;;18.80;37.60;;;;;;476486;243;1247;-78
2021/12/17 02:22:41;;;;;;;;;;;18.90;37.60;;;;;;486463;244;1465;-78
2021/12/17 02:29:00;;;;;;;;;;;18.90;37.60;;;;;;487401;242;1006;-77
2021/12/17 02:31:14;;;;;;;;;;;18.90;37.60;;;;;;487082;244;1502;-77
2021/12/17 02:33:04;;;;;;;;;;;18.90;37.60;;;;;;486641;244;1396;-77
2021/12/17 02:35:23;;;;;;;;;;;19.00;37.60;;;;;;487427;242;1154;-78
2021/12/17 02:37:18;;;;;;;;;;;18.90;37.50;;;;;;486705;244;2178;-77
2021/12/17 02:39:39;;;;;;;;;;;18.90;37.60;;;;;;487063;244;1400;-78
2021/12/17 02:45:57;;;;;;;;;;;18.90;37.80;;;;;;487239;242;1199;-77
2021/12/17 02:47:58;;;;;;;;;;;18.80;37.70;;;;;;487380;243;1140;-77
2021/12/17 02:49:59;;;;;;;;;;;18.80;37.70;;;;;;487252;245;1111;-77
2021/12/17 02:52:01;;;;;;;;;;;18.80;37.70;;;;;;487286;243;1155;-78
2021/12/17 02:54:02;;;;;;;;;;;18.80;37.70;;;;;;487321;243;1332;-78
2021/12/17 02:56:03;;;;;;;;;;;18.80;37.70;;;;;;487207;245;1149;-77
2021/12/17 02:58:04;;;;;;;;;;;18.80;37.60;;;;;;487400;243;2186;-78
2021/12/17 03:00:06;;;;;;;;;;;18.90;37.60;;;;;;487366;243;1133;-78
2021/12/17 03:02:08;;;;;;;;;;;18.90;37.70;;;;;;487292;243;1176;-77
2021/12/17 03:04:09;;;;;;;;;;;18.90;37.60;;;;;;487355;242;1164;-77
2021/12/17 03:06:10;;;;;;;;;;;18.90;37.50;;;;;;487362;242;1108;-78
2021/12/17 03:08:14;;;;;;;;;;;19.00;37.50;;;;;;487331;243;1192;-78
2021/12/17 03:10:14;;;;;;;;;;;18.90;37.50;;;;;;487240;243;1495;-78
2021/12/17 03:12:18;;;;;;;;;;;18.90;37.50;;;;;;487336;243;1354;-78
2021/12/17 03:14:16;;;;;;;;;;;18.90;37.60;;;;;;487181;244;1360;-78
2021/12/17 03:16:28;;;;;;;;;;;18.90;37.50;;;;;;487396;243;2194;-77
2021/12/17 03:23:28;;;;;;;;;;;18.80;37.50;;;;;;487445;242;1324;-77
2021/12/17 03:25:27;;;;;;;;;;;18.80;37.50;;;;;;487344;243;1518;-78
2021/12/17 03:27:28;;;;;;;;;;;18.90;37.40;;;;;;487454;243;1069;-78
2021/12/17 03:29:30;;;;;;;;;;;18.90;37.30;;;;;;487356;245;943;-78
2021/12/17 03:31:31;;;;;;;;;;;18.90;37.30;;;;;;487363;243;1081;-78
2021/12/17 03:33:32;;;;;;;;;;;19.00;37.30;;;;;;487339;243;1033;-78
2021/12/17 03:35:34;;;;;;;;;;;19.00;37.20;;;;;;487352;244;1208;-78
2021/12/17 03:37:35;;;;;;;;;;;18.90;37.30;;;;;;487462;243;2119;-77
2021/12/17 03:39:37;;;;;;;;;;;18.90;37.40;;;;;;487463;243;1128;-78
2021/12/17 03:41:39;;;;;;;;;;;18.80;37.50;;;;;;487398;243;1456;-78
2021/12/17 03:43:39;;;;;;;;;;;18.80;37.30;;;;;;487310;244;1491;-77
2021/12/17 03:45:40;;;;;;;;;;;18.80;37.30;;;;;;487440;243;1273;-78
2021/12/17 03:47:42;;;;;;;;;;;18.90;37.30;;;;;;487387;243;1082;-77
2021/12/17 03:49:43;;;;;;;;;;;18.90;37.20;;;;;;487381;243;957;-78
2021/12/17 03:51:51;;;;;;;;;;;18.90;37.30;;;;;;487268;243;1241;-77
2021/12/17 03:53:50;;;;;;;;;;;18.90;37.30;;;;;;487117;244;1481;-77
2021/12/17 03:55:51;;;;;;;;;;;18.90;37.30;;;;;;487346;243;1097;-77
2021/12/17 03:57:52;;;;;;;;;;;18.80;37.30;;;;;;487316;243;2190;-77
2021/12/17 03:59:54;;;;;;;;;;;18.80;37.50;;;;;;487407;243;1039;-78
2021/12/17 04:01:55;;;;;;;;;;;18.80;37.50;;;;;;487358;243;1187;-78
2021/12/17 04:03:56;;;;;;;;;;;18.80;37.50;;;;;;487425;243;1002;-78
2021/12/17 04:05:58;;;;;;;;;;;18.80;37.50;;;;;;487402;244;1184;-78
2021/12/17 04:07:59;;;;;;;;;;;18.80;37.50;;;;;;487397;242;1177;-77
2021/12/17 04:10:00;;;;;;;;;;;18.80;37.50;;;;;;487459;243;973;-78
2021/12/17 04:12:04;;;;;;;;;;;18.80;37.40;;;;;;487266;244;1115;-77
2021/12/17 04:14:03;;;;;;;;;;;18.90;37.40;;;;;;487187;244;1412;-77
2021/12/17 04:16:06;;;;;;;;;;;18.80;37.40;;;;;;487294;243;1215;-77
2021/12/17 04:18:07;;;;;;;;;;;18.80;37.50;;;;;;487134;243;2131;-77
2021/12/17 04:20:07;;;;;;;;;;;18.80;37.40;;;;;;487201;244;1527;-77
2021/12/17 04:22:08;;;;;;;;;;;18.80;37.50;;;;;;487274;243;1096;-78
2021/12/17 04:24:09;;;;;;;;;;;18.80;37.30;;;;;;487368;243;1175;-78
2021/12/17 04:26:11;;;;;;;;;;;18.90;37.30;;;;;;487398;244;1264;-78
2021/12/17 04:28:12;;;;;;;;;;;18.80;37.30;;;;;;487427;243;996;-77
2021/12/17 04:30:14;;;;;;;;;;;18.80;37.30;;;;;;487388;243;1025;-77
2021/12/17 04:32:15;;;;;;;;;;;18.90;37.40;;;;;;487312;243;1238;-77
2021/12/17 04:34:17;;;;;;;;;;;18.80;37.40;;;;;;487394;244;939;-78
2021/12/17 04:36:23;;;;;;;;;;;18.90;37.40;;;;;;487295;243;1376;-77
2021/12/17 04:38:22;;;;;;;;;;;18.80;37.30;;;;;;487136;243;2174;-77
2021/12/17 04:40:23;;;;;;;;;;;18.90;37.40;;;;;;487311;243;1418;-77
2021/12/17 04:42:31;;;;;;;;;;;18.90;37.30;;;;;;487306;242;1593;-78
2021/12/17 04:44:27;;;;;;;;;;;18.80;37.40;;;;;;486922;244;1423;-78
2021/12/17 04:46:32;;;;;;;;;;;18.80;37.40;;;;;;487210;243;1448;-77
2021/12/17 04:58:10;;;;;;;;;;;18.80;37.30;;;;;;464133;256;2131;-77
2021/12/17 05:00:30;;;;;;;;;;;18.80;37.30;;;;;;470265;243;2345;-77
2021/12/17 05:02:32;;;;;;;;;;;18.90;37.30;;;;;;487080;244;1397;-77
2021/12/17 05:04:32;;;;;;;;;;;18.80;37.30;;;;;;487232;243;1476;-77
2021/12/17 05:06:33;;;;;;;;;;;18.90;37.30;;;;;;487275;243;1196;-78
2021/12/17 05:08:35;;;;;;;;;;;18.80;37.20;;;;;;487421;242;1150;-78
2021/12/17 05:10:54;;;;;;;;;;;18.80;37.30;;;;;;487419;242;951;-78
2021/12/17 05:19:47;;;;;;;;;;;18.80;37.40;;;;;;487311;244;1052;-78
2021/12/17 05:21:44;;;;;;;;;;;18.80;37.20;;;;;;486938;244;1385;-78
2021/12/17 05:23:46;;;;;;;;;;;18.90;37.20;;;;;;487406;243;1156;-78
2021/12/17 05:25:46;;;;;;;;;;;18.80;37.10;;;;;;487331;243;1431;-78
2021/12/17 05:27:48;;;;;;;;;;;18.80;37.20;;;;;;487462;243;1058;-78
2021/12/17 05:29:49;;;;;;;;;;;18.70;37.40;;;;;;487421;243;1056;-78
2021/12/17 05:31:50;;;;;;;;;;;18.70;37.40;;;;;;487325;244;1321;-78
2021/12/17 05:33:51;;;;;;;;;;;18.70;37.30;;;;;;487219;245;1047;-78
2021/12/17 05:35:53;;;;;;;;;;;18.70;37.40;;;;;;487196;243;1117;-78
2021/12/17 05:37:54;;;;;;;;;;;18.80;37.40;;;;;;487345;243;2190;-78
2021/12/17 05:39:55;;;;;;;;;;;18.80;37.30;;;;;;487194;244;1076;-77
2021/12/17 05:41:57;;;;;;;;;;;18.80;37.30;;;;;;487359;243;1206;-77
2021/12/17 05:43:58;;;;;;;;;;;18.80;37.30;;;;;;487391;243;995;-78
2021/12/17 05:46:08;;;;;;;;;;;18.80;37.20;;;;;;487321;243;1125;-77
2021/12/17 05:48:05;;;;;;;;;;;18.80;37.20;;;;;;487053;244;1328;-77
2021/12/17 05:50:06;;;;;;;;;;;18.80;37.10;;;;;;487271;243;1137;-77
2021/12/17 05:52:07;;;;;;;;;;;18.80;37.10;;;;;;487271;243;1207;-77
2021/12/17 05:54:09;;;;;;;;;;;18.80;37.10;;;;;;487330;243;1166;-77
2021/12/17 05:56:10;;;;;;;;;;;18.80;37.10;;;;;;487311;242;1224;-77
2021/12/17 05:58:11;;;;;;;;;;;18.80;37.10;;;;;;487280;243;2198;-77
2021/12/17 06:00:13;;;;;;;;;;;18.80;37.00;;;;;;487335;242;1098;-77
2021/12/17 06:02:16;;;;;;;;;;;18.90;37.10;;;;;;487231;243;1191;-77
2021/12/17 06:04:15;;;;;;;;;;;18.80;37.00;;;;;;487169;244;1449;-77
2021/12/17 06:06:17;;;;;;;;;;;18.90;37.00;;;;;;487165;242;1172;-77
2021/12/17 06:08:18;;;;;;;;;;;18.80;37.00;;;;;;487299;242;1158;-77
2021/12/17 06:10:19;;;;;;;;;;;18.90;37.00;;;;;;487331;243;1168;-77
2021/12/17 06:12:21;;;;;;;;;;;18.80;36.90;;;;;;487290;244;1085;-77
2021/12/17 06:14:22;;;;;;;;;;;18.80;37.00;;;;;;487320;243;1060;-77
2021/12/17 06:16:23;;;;;;;;;;;18.80;37.00;;;;;;487178;243;1178;-77
2021/12/17 06:18:25;;;;;;;;;;;18.70;37.00;;;;;;487228;243;2119;-77
2021/12/17 06:20:26;;;;;;;;;;;18.80;37.10;;;;;;487352;242;957;-77
2021/12/17 06:22:27;;;;;;;;;;;18.80;37.00;;;;;;487288;243;1194;-77
2021/12/17 06:24:29;;;;;;;;;;;18.80;37.00;;;;;;487287;243;1163;-77
2021/12/17 06:26:30;;;;;;;;;;;18.80;37.10;;;;;;487185;243;1212;-77
2021/12/17 06:28:31;;;;;;;;;;;18.80;37.10;;;;;;487254;243;991;-77
2021/12/17 06:30:33;;;;;;;;;;;18.70;37.10;;;;;;487254;243;979;-77
2021/12/17 06:32:34;;;;;;;;;;;18.80;37.10;;;;;;487169;243;1730;-77
2021/12/17 06:34:35;;;;;;;;;;;18.80;37.10;;;;;;487323;244;967;-77
2021/12/17 06:36:37;;;;;;;;;;;18.70;37.20;;;;;;487156;243;1173;-77
2021/12/17 06:38:38;;;;;;;;;;;18.70;37.10;;;;;;487042;243;2115;-77
2021/12/17 06:40:39;;;;;;;;;;;18.70;37.20;;;;;;487214;242;1190;-77
2021/12/17 06:42:40;;;;;;;;;;;18.70;37.20;;;;;;487261;242;1054;-77
2021/12/17 06:44:42;;;;;;;;;;;18.70;37.20;;;;;;487312;242;1057;-77
2021/12/17 06:46:55;;;;;;;;;;;18.70;37.10;;;;;;487136;243;1205;-78
2021/12/17 06:48:57;;;;;;;;;;;18.80;37.10;;;;;;486865;244;1379;-77
2021/12/17 06:55:53;;;;;;;;;;;18.80;37.00;;;;;;487297;243;1082;-78
2021/12/17 06:58:13;;;;;;;;;;;18.80;37.10;;;;;;485755;244;2194;-77
2021/12/17 07:00:08;;;;;;;;;;;18.80;37.10;;;;;;485677;245;1177;-78
2021/12/17 07:06:56;;;;;;;;;;;18.70;37.10;;;;;;487050;242;1302;-77
2021/12/17 07:11:35;;;;;;;;;;;18.80;37.20;;;;;;463566;256;1222;-77
2021/12/17 07:18:28;;;;;;;;;;;18.80;37.10;;;;;;486771;245;2123;-77
2021/12/17 07:22:49;;;;;;;;;;;18.80;37.10;;;;;;463695;255;1140;-77
2021/12/17 07:24:51;;;;;;;;;;;18.70;37.10;;;;;;463499;257;1442;-77
2021/12/17 07:30:44;;;;;;;;;;;18.80;37.10;;;;;;463469;256;1113;-77
2021/12/17 07:32:17;;;;;;;;;;;18.90;37.00;;;;;;463600;256;1223;-77
2021/12/17 07:34:00;;;;;;;;;;;18.80;36.90;;;;;;463744;256;1286;-77
2021/12/17 07:36:08;;;;;;;;;;;18.80;37.10;;;;;;463622;256;1437;-77
2021/12/17 07:40:20;;;;;;;;;;;18.80;37.70;;;;;;463732;252;1368;-77
2021/12/17 07:42:22;;;;;;;;;;;18.80;38.10;;;;;;463677;256;1218;-77
2021/12/17 07:44:23;;;;;;;;;;;18.80;38.20;;;;;;463697;257;1611;-77
2021/12/17 07:46:24;;;;;;;;;;;18.80;38.10;;;;;;463571;256;1438;-77
2021/12/17 07:48:26;;;;;;;;;;;18.80;38.00;;;;;;463564;257;1220;-77
2021/12/17 07:50:27;;;;;;;;;;;18.80;37.90;;;;;;463604;257;1056;-77
2021/12/17 07:52:28;;;;;;;;;;;18.70;37.80;;;;;;463595;257;1235;-77
2021/12/17 07:54:30;;;;;;;;;;;18.70;37.80;;;;;;480266;244;1234;-77
2021/12/17 07:56:37;;;;;;;;;;;18.80;37.90;;;;;;486935;243;1183;-77
2021/12/17 07:58:32;;;;;;;;;;;18.80;37.80;;;;;;486553;243;2206;-77
2021/12/17 08:00:34;;;;;;;;;;;18.80;37.80;;;;;;486860;243;1069;-77
2021/12/17 08:02:35;;;;;;;;;;;18.80;37.70;;;;;;486884;242;1062;-77
2021/12/17 08:04:36;;;;;;;;;;;18.80;37.60;;;;;;486646;242;1051;-77
2021/12/17 08:06:37;;;;;;;;;;;18.80;37.50;;;;;;486822;242;1122;-77
2021/12/17 08:08:39;;;;;;;;;;;18.80;37.50;;;;;;486732;242;1158;-77
2021/12/17 08:10:40;;;;;;;;;;;18.70;37.50;;;;;;486652;243;1197;-77
2021/12/17 08:12:41;;;;;;;;;;;18.80;37.50;;;;;;486522;243;1073;-77
2021/12/17 08:14:43;;;;;;;;;;;18.70;37.50;;;;;;486712;242;1077;-77
2021/12/17 08:16:52;;;;;;;;;;;18.70;37.50;;;;;;486615;243;1168;-77
2021/12/17 08:18:55;;;;;;;;;;;18.80;37.50;;;;;;486326;244;2194;-77
2021/12/17 08:25:48;;;;;;;;;;;18.80;37.30;;;;;;486761;242;1281;-77
2021/12/17 08:28:00;;;;;;;;;;;18.80;37.30;;;;;;486368;244;1331;-77
2021/12/17 08:29:56;;;;;;;;;;;18.80;37.40;;;;;;485990;244;1270;-77
2021/12/17 08:31:55;;;;;;;;;;;18.70;37.40;;;;;;486609;244;1398;-77
2021/12/17 08:33:57;;;;;;;;;;;18.70;37.50;;;;;;486795;243;1034;-77
2021/12/17 08:35:59;;;;;;;;;;;18.80;37.50;;;;;;486695;244;1172;-77
2021/12/17 08:37:59;;;;;;;;;;;18.80;37.40;;;;;;486811;242;2178;-77
2021/12/17 08:40:01;;;;;;;;;;;18.80;37.40;;;;;;486808;243;1048;-77
2021/12/17 08:42:02;;;;;;;;;;;18.80;37.50;;;;;;486767;242;1152;-77
2021/12/17 08:44:03;;;;;;;;;;;18.80;37.40;;;;;;486713;243;1083;-77
2021/12/17 08:46:04;;;;;;;;;;;18.80;37.30;;;;;;486860;242;1361;-77
2021/12/17 08:48:06;;;;;;;;;;;18.80;37.30;;;;;;486735;243;1088;-77
2021/12/17 08:50:08;;;;;;;;;;;18.80;37.40;;;;;;486600;242;1112;-77
2021/12/17 08:52:08;;;;;;;;;;;18.80;37.40;;;;;;486516;244;1205;-77
2021/12/17 08:54:10;;;;;;;;;;;18.80;37.40;;;;;;486937;243;1113;-77
2021/12/17 08:56:14;;;;;;;;;;;18.90;37.30;;;;;;486781;243;1127;-77
2021/12/17 08:58:14;;;;;;;;;;;18.80;37.30;;;;;;486543;244;2190;-77
2021/12/17 09:00:16;;;;;;;;;;;18.80;37.30;;;;;;486765;243;1018;-78
2021/12/17 09:02:17;;;;;;;;;;;18.80;37.30;;;;;;486496;243;1122;-78
2021/12/17 09:04:18;;;;;;;;;;;18.90;37.30;;;;;;486710;243;1025;-77
2021/12/17 09:06:24;;;;;;;;;;;18.80;37.30;;;;;;486600;240;1207;-77
2021/12/17 09:08:22;;;;;;;;;;;18.80;37.30;;;;;;486433;244;1306;-77
2021/12/17 09:10:23;;;;;;;;;;;18.80;37.40;;;;;;486635;243;1288;-77
2021/12/17 09:12:24;;;;;;;;;;;18.80;37.40;;;;;;486642;243;1155;-77
2021/12/17 09:14:26;;;;;;;;;;;18.80;37.40;;;;;;486834;243;1027;-77
2021/12/17 09:16:27;;;;;;;;;;;18.80;37.30;;;;;;486712;243;1309;-77
2021/12/17 09:18:28;;;;;;;;;;;18.90;37.30;;;;;;486787;243;2135;-77
2021/12/17 09:20:30;;;;;;;;;;;18.80;37.30;;;;;;486801;243;1030;-77
2021/12/17 09:22:31;;;;;;;;;;;18.80;37.30;;;;;;486806;243;1221;-77
2021/12/17 09:24:32;;;;;;;;;;;18.80;37.20;;;;;;486737;244;1117;-77
2021/12/17 09:26:34;;;;;;;;;;;18.80;37.20;;;;;;486645;243;1235;-77
2021/12/17 09:28:35;;;;;;;;;;;18.90;37.10;;;;;;486788;243;1169;-77
2021/12/17 09:30:36;;;;;;;;;;;18.80;37.00;;;;;;486585;243;1058;-77
2021/12/17 09:32:38;;;;;;;;;;;18.80;37.10;;;;;;486572;243;1192;-77
2021/12/17 09:34:39;;;;;;;;;;;18.80;37.10;;;;;;486702;242;1421;-77
2021/12/17 09:36:40;;;;;;;;;;;18.80;37.10;;;;;;486620;241;1208;-77
2021/12/17 09:38:42;;;;;;;;;;;18.80;37.00;;;;;;486678;243;2194;-77
2021/12/17 09:40:43;;;;;;;;;;;18.80;37.00;;;;;;486599;243;1164;-77
2021/12/17 09:42:45;;;;;;;;;;;18.80;37.10;;;;;;486590;242;1170;-77
2021/12/17 09:44:46;;;;;;;;;;;18.90;37.00;;;;;;486253;242;992;-77
2021/12/17 09:46:47;;;;;;;;;;;18.80;37.00;;;;;;486684;242;1129;-77
2021/12/17 09:48:48;;;;;;;;;;;18.80;37.00;;;;;;486442;243;1101;-77
2021/12/17 09:50:52;;;;;;;;;;;18.80;37.00;;;;;;486626;243;1278;-77
2021/12/17 09:52:53;;;;;;;;;;;18.80;37.00;;;;;;486540;243;1425;-77
2021/12/17 09:54:52;;;;;;;;;;;18.80;37.00;;;;;;486209;244;1413;-77
2021/12/17 09:56:54;;;;;;;;;;;18.80;37.00;;;;;;486494;243;1209;-77
2021/12/17 09:58:55;;;;;;;;;;;18.90;37.00;;;;;;486501;243;2181;-77
2021/12/17 10:00:56;;;;;;;;;;;18.80;36.90;;;;;;486541;243;1124;-77
2021/12/17 10:02:58;;;;;;;;;;;18.80;36.90;;;;;;486598;243;1104;-77
2021/12/17 10:04:59;;;;;;;;;;;18.80;36.80;;;;;;486693;245;1244;-77
2021/12/17 10:07:01;;;;;;;;;;;18.80;36.90;;;;;;486690;243;1222;-77
2021/12/17 10:09:02;;;;;;;;;;;18.90;36.90;;;;;;486941;242;1026;-77
2021/12/17 10:11:03;;;;;;;;;;;18.90;36.90;;;;;;486353;243;1226;-77
2021/12/17 10:13:05;;;;;;;;;;;18.90;36.80;;;;;;486599;243;1183;-77
2021/12/17 10:15:07;;;;;;;;;;;19.00;36.70;;;;;;486724;243;1046;-77
2021/12/17 10:17:07;;;;;;;;;;;18.90;36.70;;;;;;486668;244;1497;-77
2021/12/17 10:19:09;;;;;;;;;;;19.00;36.80;;;;;;486710;243;2174;-77
2021/12/17 10:21:10;;;;;;;;;;;18.90;36.80;;;;;;486777;243;1059;-77
2021/12/17 10:23:11;;;;;;;;;;;19.00;36.70;;;;;;486661;241;1064;-77
2021/12/17 10:25:12;;;;;;;;;;;18.90;36.70;;;;;;486567;243;1084;-77
2021/12/17 10:27:14;;;;;;;;;;;18.80;36.80;;;;;;486485;242;1134;-77
2021/12/17 10:29:15;;;;;;;;;;;18.80;36.80;;;;;;486607;244;1051;-77
2021/12/17 10:31:16;;;;;;;;;;;18.90;36.80;;;;;;486420;243;1048;-77
2021/12/17 10:33:18;;;;;;;;;;;18.90;36.80;;;;;;486566;243;1119;-77
2021/12/17 10:35:20;;;;;;;;;;;18.80;36.80;;;;;;486473;240;1311;-77
2021/12/17 10:37:20;;;;;;;;;;;18.90;36.90;;;;;;486380;244;1330;-77
2021/12/17 10:39:22;;;;;;;;;;;18.90;36.80;;;;;;486650;243;2190;-77
2021/12/17 10:41:23;;;;;;;;;;;18.90;36.80;;;;;;486653;242;1199;-77
2021/12/17 10:43:27;;;;;;;;;;;18.80;36.90;;;;;;486637;243;1223;-77
2021/12/17 10:45:28;;;;;;;;;;;18.80;36.80;;;;;;486545;243;1325;-77
2021/12/17 10:47:33;;;;;;;;;;;18.80;36.80;;;;;;486714;244;1401;-78
2021/12/17 10:49:32;;;;;;;;;;;18.80;36.80;;;;;;486559;244;1502;-77
2021/12/17 10:51:45;;;;;;;;;;;18.90;36.80;;;;;;486690;243;1190;-77
2021/12/17 10:53:44;;;;;;;;;;;18.90;36.90;;;;;;486741;243;1516;-77
2021/12/17 10:55:46;;;;;;;;;;;18.90;36.90;;;;;;486967;243;1046;-77
2021/12/17 10:57:47;;;;;;;;;;;18.80;36.70;;;;;;486764;243;1168;-77
2021/12/17 10:59:48;;;;;;;;;;;18.80;36.80;;;;;;486681;243;2123;-77
2021/12/17 11:01:51;;;;;;;;;;;18.80;36.90;;;;;;486564;243;1379;-77
2021/12/17 11:03:51;;;;;;;;;;;18.80;36.90;;;;;;486600;244;1416;-77
2021/12/17 11:05:52;;;;;;;;;;;18.80;37.00;;;;;;486617;243;1086;-77
2021/12/17 11:07:54;;;;;;;;;;;18.80;37.00;;;;;;486689;243;1242;-77
2021/12/17 11:09:57;;;;;;;;;;;18.80;36.90;;;;;;486742;243;1053;-77
2021/12/17 11:11:57;;;;;;;;;;;18.90;36.90;;;;;;486643;243;1878;-77
2021/12/17 11:13:58;;;;;;;;;;;18.90;36.80;;;;;;486714;243;1422;-77
2021/12/17 11:15:59;;;;;;;;;;;18.80;36.80;;;;;;486561;243;1106;-77
2021/12/17 11:18:01;;;;;;;;;;;18.80;36.80;;;;;;486665;243;1099;-77
2021/12/17 11:20:02;;;;;;;;;;;18.80;37.00;;;;;;486586;243;2201;-77
2021/12/17 11:22:03;;;;;;;;;;;18.80;36.90;;;;;;486491;240;1177;-77
2021/12/17 11:24:04;;;;;;;;;;;18.80;36.80;;;;;;486742;243;1060;-77
2021/12/17 11:26:06;;;;;;;;;;;18.80;36.90;;;;;;486709;243;1197;-77
2021/12/17 11:28:07;;;;;;;;;;;18.80;36.90;;;;;;486757;244;1149;-77
2021/12/17 11:30:09;;;;;;;;;;;18.70;37.00;;;;;;486904;243;1164;-77
2021/12/17 11:32:10;;;;;;;;;;;18.70;37.00;;;;;;486783;243;1107;-77
2021/12/17 11:34:11;;;;;;;;;;;18.70;36.90;;;;;;486610;243;1281;-77
2021/12/17 11:36:13;;;;;;;;;;;18.70;37.00;;;;;;486613;243;1147;-77
2021/12/17 11:38:14;;;;;;;;;;;18.80;36.90;;;;;;486556;243;1058;-77
2021/12/17 11:40:15;;;;;;;;;;;18.80;36.80;;;;;;486450;243;2190;-77
2021/12/17 11:42:19;;;;;;;;;;;18.80;36.90;;;;;;486434;243;1081;-77
2021/12/17 11:44:20;;;;;;;;;;;18.80;36.90;;;;;;486702;243;1416;-77
2021/12/17 11:46:20;;;;;;;;;;;18.90;36.90;;;;;;486460;244;1387;-77
2021/12/17 11:48:23;;;;;;;;;;;18.90;36.90;;;;;;486570;243;1163;-77
2021/12/17 11:50:23;;;;;;;;;;;18.80;36.70;;;;;;486410;244;1525;-77
2021/12/17 11:52:24;;;;;;;;;;;18.90;36.90;;;;;;486762;243;1040;-77
2021/12/17 11:54:26;;;;;;;;;;;18.80;36.80;;;;;;486868;243;1043;-77
2021/12/17 11:56:27;;;;;;;;;;;18.90;36.80;;;;;;486835;243;1208;-77
2021/12/17 11:58:28;;;;;;;;;;;18.80;36.80;;;;;;486776;243;1142;-78
2021/12/17 12:00:30;;;;;;;;;;;18.80;36.70;;;;;;486991;243;2190;-77
2021/12/17 12:02:31;;;;;;;;;;;18.90;36.70;;;;;;486988;243;1099;-77
2021/12/17 12:04:32;;;;;;;;;;;18.90;36.80;;;;;;486925;243;992;-77
2021/12/17 12:06:34;;;;;;;;;;;18.90;36.70;;;;;;486838;243;1184;-77
2021/12/17 12:08:44;;;;;;;;;;;18.90;36.60;;;;;;486806;243;1029;-77
2021/12/17 12:10:36;;;;;;;;;;;18.90;36.70;;;;;;486048;244;1386;-77
2021/12/17 12:12:37;;;;;;;;;;;18.90;36.60;;;;;;486717;243;1365;-78
2021/12/17 12:14:39;;;;;;;;;;;18.90;36.70;;;;;;486684;243;1174;-77
2021/12/17 12:16:40;;;;;;;;;;;18.90;36.70;;;;;;486676;243;1222;-77
2021/12/17 12:18:41;;;;;;;;;;;18.90;36.80;;;;;;486699;243;1056;-77
2021/12/17 12:20:43;;;;;;;;;;;18.80;36.70;;;;;;486620;243;2194;-77
2021/12/17 12:22:44;;;;;;;;;;;18.90;36.80;;;;;;486697;245;1032;-77
2021/12/17 12:24:47;;;;;;;;;;;18.80;36.70;;;;;;486959;244;1019;-77
2021/12/17 12:26:48;;;;;;;;;;;18.80;36.80;;;;;;486743;243;1379;-77
2021/12/17 12:28:48;;;;;;;;;;;18.80;36.80;;;;;;486968;243;1453;-77
2021/12/17 12:30:49;;;;;;;;;;;18.80;36.90;;;;;;486803;243;1047;-78
2021/12/17 12:32:51;;;;;;;;;;;18.80;36.80;;;;;;486779;243;1119;-77
2021/12/17 12:34:53;;;;;;;;;;;18.90;36.80;;;;;;486793;243;1118;-77
2021/12/17 12:36:53;;;;;;;;;;;18.90;36.90;;;;;;486660;243;1456;-77
2021/12/17 12:38:55;;;;;;;;;;;18.80;36.80;;;;;;486820;243;1089;-77
2021/12/17 12:40:57;;;;;;;;;;;18.80;36.90;;;;;;486627;244;2191;-77
2021/12/17 12:42:57;;;;;;;;;;;18.80;36.90;;;;;;486732;244;1322;-77
2021/12/17 12:44:59;;;;;;;;;;;18.80;36.90;;;;;;486745;243;1173;-77
2021/12/17 12:47:00;;;;;;;;;;;18.90;37.00;;;;;;486638;244;1150;-77
2021/12/17 12:49:01;;;;;;;;;;;19.10;36.60;;;;;;486646;243;1182;-77
2021/12/17 12:51:02;;;;;;;;;;;19.00;36.70;;;;;;486566;243;1201;-77
2021/12/17 12:53:04;;;;;;;;;;;19.10;36.70;;;;;;486699;244;1113;-77
2021/12/17 12:55:05;;;;;;;;;;;19.20;36.60;;;;;;486807;243;1148;-77
2021/12/17 12:57:06;;;;;;;;;;;19.20;36.50;;;;;;486744;243;1191;-77
2021/12/17 12:59:08;;;;;;;;;;;19.10;36.60;;;;;;486715;243;1155;-77
2021/12/17 13:01:09;;;;;;;;;;;19.00;36.90;;;;;;486608;243;2197;-77
2021/12/17 13:03:10;;;;;;;;;;;18.90;37.10;;;;;;486676;243;1057;-77
2021/12/17 13:05:12;;;;;;;;;;;18.80;37.20;;;;;;486793;243;1131;-77
2021/12/17 13:07:13;;;;;;;;;;;18.70;37.30;;;;;;486819;243;1116;-77
2021/12/17 13:09:14;;;;;;;;;;;18.70;37.40;;;;;;486703;243;1106;-77
2021/12/17 13:11:18;;;;;;;;;;;18.70;37.40;;;;;;486580;243;1095;-77
2021/12/17 13:13:19;;;;;;;;;;;18.60;37.40;;;;;;486513;244;1387;-77
2021/12/17 13:15:31;;;;;;;;;;;18.60;37.70;;;;;;486347;244;1326;-77
2021/12/17 13:17:41;;;;;;;;;;;18.60;37.70;;;;;;485599;244;1334;-77
2021/12/17 13:21:46;;;;;;;;;;;18.50;37.80;;;;;;486837;242;1228;-76
2021/12/17 13:23:50;;;;;;;;;;;18.50;37.80;;;;;;486747;243;1338;-77
2021/12/17 13:25:49;;;;;;;;;;;18.50;37.70;;;;;;486873;244;1448;-77
2021/12/17 13:27:50;;;;;;;;;;;18.40;37.70;;;;;;486963;243;1042;-76
2021/12/17 13:29:52;;;;;;;;;;;18.50;37.80;;;;;;486807;244;1121;-77
2021/12/17 13:31:53;;;;;;;;;;;18.50;37.70;;;;;;486979;243;1198;-77
2021/12/17 13:33:54;;;;;;;;;;;18.50;37.70;;;;;;486751;243;1117;-77
2021/12/17 13:35:56;;;;;;;;;;;18.50;37.80;;;;;;486684;243;1090;-76
2021/12/17 13:37:57;;;;;;;;;;;18.50;37.80;;;;;;486686;243;1195;-77
2021/12/17 13:39:58;;;;;;;;;;;18.50;37.90;;;;;;486876;244;2131;-76
2021/12/17 13:42:00;;;;;;;;;;;18.40;37.90;;;;;;486803;243;1208;-78
2021/12/17 13:44:02;;;;;;;;;;;18.50;37.80;;;;;;486888;243;1116;-77
2021/12/17 13:46:05;;;;;;;;;;;18.40;37.90;;;;;;486658;244;1415;-76
2021/12/17 13:48:04;;;;;;;;;;;18.50;38.00;;;;;;486795;244;1357;-77
2021/12/17 13:50:05;;;;;;;;;;;18.50;37.90;;;;;;486652;243;1132;-77
2021/12/17 13:52:06;;;;;;;;;;;18.50;38.00;;;;;;486592;243;1095;-77
2021/12/17 13:54:08;;;;;;;;;;;18.50;37.90;;;;;;486787;243;1108;-77
2021/12/17 13:56:09;;;;;;;;;;;18.50;37.90;;;;;;486654;243;1118;-77